sensor_id;sensor_type;location;lat;lon;timestamp;P1;durP1;ratioP1;P2;durP2;ratioP2
2257;SDS011;1136;51.574;7.706;2024-03-23T00:52:59;16.00;;;6.10;;
2257;SDS011;1136;51.574;7.706;2024-03-23T00:56:02;14.30;;;5.87;;
2257;SDS011;1136;51.574;7.706;2024-03-23T00:59:06;12.20;;;6.10;;
2257;SDS011;1136;51.574;7.706;2024-03-23T01:02:10;15.43;;;7.33;;
2257;SDS011;1136;51.574;7.706;2024-03-23T01:05:13;17.93;;;6.93;;
2257;SDS011;1136;51.574;7.706;2024-03-23T01:08:17;20.90;;;6.87;;
2257;SDS011;1136;51.574;7.706;2024-03-23T01:11:20;13.70;;;5.63;;
2257;SDS011;1136;51.574;7.706;2024-03-23T01:14:22;10.13;;;5.57;;
2257;SDS011;1136;51.574;7.706;2024-03-23T01:17:25;15.50;;;5.70;;
2257;SDS011;1136;51.574;7.706;2024-03-23T01:20:29;15.40;;;5.67;;
2257;SDS011;1136;51.574;7.706;2024-03-23T01:23:32;20.27;;;8.27;;
2257;SDS011;1136;51.574;7.706;2024-03-23T01:26:35;18.07;;;6.17;;
2257;SDS011;1136;51.574;7.706;2024-03-23T01:29:39;13.23;;;6.77;;
2257;SDS011;1136;51.574;7.706;2024-03-23T01:32:43;19.43;;;7.10;;
2257;SDS011;1136;51.574;7.706;2024-03-23T01:35:46;19.37;;;6.50;;
2257;SDS011;1136;51.574;7.706;2024-03-23T01:38:49;18.00;;;5.80;;
2257;SDS011;1136;51.574;7.706;2024-03-23T01:41:53;12.57;;;6.30;;
2257;SDS011;1136;51.574;7.706;2024-03-23T01:44:56;13.10;;;6.80;;
2257;SDS011;1136;51.574;7.706;2024-03-23T01:48:00;20.30;;;6.23;;
2257;SDS011;1136;51.574;7.706;2024-03-23T01:51:03;16.70;;;6.60;;
2257;SDS011;1136;51.574;7.706;2024-03-23T01:54:07;15.27;;;6.13;;
2257;SDS011;1136;51.574;7.706;2024-03-23T01:57:10;19.67;;;6.73;;
2257;SDS011;1136;51.574;7.706;2024-03-23T02:00:13;11.40;;;5.90;;
2257;SDS011;1136;51.574;7.706;2024-03-23T02:03:23;13.43;;;6.40;;
2257;SDS011;1136;51.574;7.706;2024-03-23T02:06:29;11.23;;;6.10;;
2257;SDS011;1136;51.574;7.706;2024-03-23T02:09:32;17.57;;;5.70;;
2257;SDS011;1136;51.574;7.706;2024-03-23T02:12:36;14.13;;;5.80;;
2257;SDS011;1136;51.574;7.706;2024-03-23T02:15:40;15.83;;;5.73;;
2257;SDS011;1136;51.574;7.706;2024-03-23T02:18:43;5.83;;;4.23;;
2257;SDS011;1136;51.574;7.706;2024-03-23T02:21:46;10.37;;;4.60;;
2257;SDS011;1136;51.574;7.706;2024-03-23T02:24:50;15.17;;;4.60;;
2257;SDS011;1136;51.574;7.706;2024-03-23T02:27:53;11.17;;;4.63;;
2257;SDS011;1136;51.574;7.706;2024-03-23T02:30:58;16.23;;;4.23;;
2257;SDS011;1136;51.574;7.706;2024-03-23T02:34:03;11.53;;;5.00;;
2257;SDS011;1136;51.574;7.706;2024-03-23T02:37:10;10.30;;;5.33;;
2257;SDS011;1136;51.574;7.706;2024-03-23T02:40:14;7.53;;;4.70;;
2257;SDS011;1136;51.574;7.706;2024-03-23T02:43:20;16.23;;;3.67;;
2257;SDS011;1136;51.574;7.706;2024-03-23T02:46:24;12.93;;;4.27;;
2257;SDS011;1136;51.574;7.706;2024-03-23T02:49:27;17.43;;;4.30;;
2257;SDS011;1136;51.574;7.706;2024-03-23T02:52:30;9.47;;;4.70;;
2257;SDS011;1136;51.574;7.706;2024-03-23T02:55:33;9.10;;;3.77;;
2257;SDS011;1136;51.574;7.706;2024-03-23T02:58:37;11.17;;;4.10;;
2257;SDS011;1136;51.574;7.706;2024-03-23T03:01:39;5.90;;;3.90;;
2257;SDS011;1136;51.574;7.706;2024-03-23T03:04:43;8.27;;;3.87;;
2257;SDS011;1136;51.574;7.706;2024-03-23T03:07:46;7.97;;;3.43;;
2257;SDS011;1136;51.574;7.706;2024-03-23T03:10:49;7.50;;;2.80;;
2257;SDS011;1136;51.574;7.706;2024-03-23T03:13:53;10.10;;;4.17;;
2257;SDS011;1136;51.574;7.706;2024-03-23T03:16:56;7.53;;;4.60;;
2257;SDS011;1136;51.574;7.706;2024-03-23T03:19:59;4.50;;;3.50;;
2257;SDS011;1136;51.574;7.706;2024-03-23T03:23:02;10.73;;;3.80;;
2257;SDS011;1136;51.574;7.706;2024-03-23T03:26:05;9.50;;;4.17;;
2257;SDS011;1136;51.574;7.706;2024-03-23T03:29:09;6.17;;;3.80;;
2257;SDS011;1136;51.574;7.706;2024-03-23T03:32:12;8.73;;;3.17;;
2257;SDS011;1136;51.574;7.706;2024-03-23T03:35:15;11.70;;;3.73;;
2257;SDS011;1136;51.574;7.706;2024-03-23T03:38:18;8.97;;;4.00;;
2257;SDS011;1136;51.574;7.706;2024-03-23T03:41:22;15.90;;;3.80;;
2257;SDS011;1136;51.574;7.706;2024-03-23T03:44:25;6.63;;;3.47;;
2257;SDS011;1136;51.574;7.706;2024-03-23T03:47:28;8.67;;;3.30;;
2257;SDS011;1136;51.574;7.706;2024-03-23T03:50:31;9.43;;;3.90;;
2257;SDS011;1136;51.574;7.706;2024-03-23T03:53:34;6.83;;;3.97;;
2257;SDS011;1136;51.574;7.706;2024-03-23T03:56:37;13.57;;;4.53;;
2257;SDS011;1136;51.574;7.706;2024-03-23T03:59:40;12.10;;;3.67;;
2257;SDS011;1136;51.574;7.706;2024-03-23T04:02:43;9.40;;;3.90;;
2257;SDS011;1136;51.574;7.706;2024-03-23T04:05:51;7.63;;;3.27;;
2257;SDS011;1136;51.574;7.706;2024-03-23T04:08:55;5.10;;;2.97;;
2257;SDS011;1136;51.574;7.706;2024-03-23T04:11:58;6.47;;;3.30;;
2257;SDS011;1136;51.574;7.706;2024-03-23T04:15:02;10.13;;;3.50;;
2257;SDS011;1136;51.574;7.706;2024-03-23T04:18:07;10.57;;;4.13;;
2257;SDS011;1136;51.574;7.706;2024-03-23T04:21:10;3.43;;;2.70;;
2257;SDS011;1136;51.574;7.706;2024-03-23T04:24:13;10.03;;;3.90;;
2257;SDS011;1136;51.574;7.706;2024-03-23T04:27:17;7.23;;;4.10;;
2257;SDS011;1136;51.574;7.706;2024-03-23T04:30:21;5.50;;;3.17;;
2257;SDS011;1136;51.574;7.706;2024-03-23T04:33:24;4.50;;;2.80;;
2257;SDS011;1136;51.574;7.706;2024-03-23T04:36:27;8.00;;;3.03;;
2257;SDS011;1136;51.574;7.706;2024-03-23T04:39:31;7.00;;;3.30;;
2257;SDS011;1136;51.574;7.706;2024-03-23T04:42:34;9.77;;;3.10;;
2257;SDS011;1136;51.574;7.706;2024-03-23T04:45:37;7.73;;;3.13;;
2257;SDS011;1136;51.574;7.706;2024-03-23T04:48:40;11.40;;;3.67;;
2257;SDS011;1136;51.574;7.706;2024-03-23T04:51:43;7.37;;;3.40;;
2257;SDS011;1136;51.574;7.706;2024-03-23T04:54:49;10.60;;;3.73;;
2257;SDS011;1136;51.574;7.706;2024-03-23T04:57:52;12.47;;;3.80;;
2257;SDS011;1136;51.574;7.706;2024-03-23T05:00:56;13.03;;;2.93;;
2257;SDS011;1136;51.574;7.706;2024-03-23T05:03:59;9.47;;;3.30;;
2257;SDS011;1136;51.574;7.706;2024-03-23T05:07:03;6.30;;;3.10;;
2257;SDS011;1136;51.574;7.706;2024-03-23T05:10:09;9.80;;;3.30;;
2257;SDS011;1136;51.574;7.706;2024-03-23T05:13:16;5.90;;;3.73;;
2257;SDS011;1136;51.574;7.706;2024-03-23T05:16:19;7.10;;;3.00;;
2257;SDS011;1136;51.574;7.706;2024-03-23T05:19:23;8.60;;;2.80;;
2257;SDS011;1136;51.574;7.706;2024-03-23T05:22:26;5.60;;;3.03;;
2257;SDS011;1136;51.574;7.706;2024-03-23T05:25:30;7.83;;;3.10;;
2257;SDS011;1136;51.574;7.706;2024-03-23T05:28:33;7.37;;;3.00;;
2257;SDS011;1136;51.574;7.706;2024-03-23T05:31:36;5.20;;;2.90;;
2257;SDS011;1136;51.574;7.706;2024-03-23T05:34:40;7.30;;;3.20;;
2257;SDS011;1136;51.574;7.706;2024-03-23T05:37:43;11.37;;;3.60;;
2257;SDS011;1136;51.574;7.706;2024-03-23T05:40:57;11.23;;;3.80;;
2257;SDS011;1136;51.574;7.706;2024-03-23T05:44:00;7.27;;;3.50;;
2257;SDS011;1136;51.574;7.706;2024-03-23T05:47:04;14.40;;;3.50;;
2257;SDS011;1136;51.574;7.706;2024-03-23T05:50:07;11.13;;;3.33;;
2257;SDS011;1136;51.574;7.706;2024-03-23T05:53:12;6.53;;;3.60;;
2257;SDS011;1136;51.574;7.706;2024-03-23T05:56:19;10.63;;;3.80;;
2257;SDS011;1136;51.574;7.706;2024-03-23T05:59:22;6.73;;;4.20;;
2257;SDS011;1136;51.574;7.706;2024-03-23T06:02:26;9.13;;;4.10;;
2257;SDS011;1136;51.574;7.706;2024-03-23T06:05:29;9.63;;;4.43;;
2257;SDS011;1136;51.574;7.706;2024-03-23T06:08:33;8.53;;;4.20;;
2257;SDS011;1136;51.574;7.706;2024-03-23T06:11:36;9.90;;;4.30;;
2257;SDS011;1136;51.574;7.706;2024-03-23T06:14:39;9.87;;;4.93;;
2257;SDS011;1136;51.574;7.706;2024-03-23T06:17:42;9.97;;;5.23;;
2257;SDS011;1136;51.574;7.706;2024-03-23T06:20:45;11.93;;;5.83;;
2257;SDS011;1136;51.574;7.706;2024-03-23T06:23:51;10.43;;;6.10;;
2257;SDS011;1136;51.574;7.706;2024-03-23T06:26:55;15.17;;;7.17;;
2257;SDS011;1136;51.574;7.706;2024-03-23T06:29:58;12.07;;;7.23;;
2257;SDS011;1136;51.574;7.706;2024-03-23T06:33:04;16.03;;;7.40;;
2257;SDS011;1136;51.574;7.706;2024-03-23T06:36:11;13.07;;;8.13;;
2257;SDS011;1136;51.574;7.706;2024-03-23T06:39:14;20.23;;;8.60;;
2257;SDS011;1136;51.574;7.706;2024-03-23T06:42:18;16.83;;;8.03;;
2257;SDS011;1136;51.574;7.706;2024-03-23T06:45:22;20.63;;;8.93;;
2257;SDS011;1136;51.574;7.706;2024-03-23T06:48:26;16.70;;;10.57;;
2257;SDS011;1136;51.574;7.706;2024-03-23T06:51:29;23.67;;;10.50;;
2257;SDS011;1136;51.574;7.706;2024-03-23T06:54:33;16.80;;;10.50;;
2257;SDS011;1136;51.574;7.706;2024-03-23T06:57:36;15.00;;;10.63;;
2257;SDS011;1136;51.574;7.706;2024-03-23T07:00:39;17.23;;;11.90;;
2257;SDS011;1136;51.574;7.706;2024-03-23T07:03:43;21.90;;;12.50;;
2257;SDS011;1136;51.574;7.706;2024-03-23T07:06:46;21.00;;;13.80;;
2257;SDS011;1136;51.574;7.706;2024-03-23T07:09:50;20.00;;;14.53;;
2257;SDS011;1136;51.574;7.706;2024-03-23T07:12:53;24.43;;;17.10;;
2257;SDS011;1136;51.574;7.706;2024-03-23T07:15:56;26.50;;;18.10;;
2257;SDS011;1136;51.574;7.706;2024-03-23T07:19:00;23.93;;;16.20;;
2257;SDS011;1136;51.574;7.706;2024-03-23T07:22:03;32.60;;;19.50;;
2257;SDS011;1136;51.574;7.706;2024-03-23T07:25:07;29.33;;;20.10;;
2257;SDS011;1136;51.574;7.706;2024-03-23T07:28:10;28.23;;;20.90;;
2257;SDS011;1136;51.574;7.706;2024-03-23T07:31:14;29.83;;;19.57;;
2257;SDS011;1136;51.574;7.706;2024-03-23T07:34:17;44.20;;;20.90;;
2257;SDS011;1136;51.574;7.706;2024-03-23T07:37:21;30.87;;;18.23;;
2257;SDS011;1136;51.574;7.706;2024-03-23T07:40:24;29.83;;;17.90;;
2257;SDS011;1136;51.574;7.706;2024-03-23T07:43:28;27.33;;;18.67;;
2257;SDS011;1136;51.574;7.706;2024-03-23T07:46:31;30.37;;;19.40;;
2257;SDS011;1136;51.574;7.706;2024-03-23T07:49:34;32.70;;;17.60;;
2257;SDS011;1136;51.574;7.706;2024-03-23T07:52:38;32.07;;;18.43;;
2257;SDS011;1136;51.574;7.706;2024-03-23T07:55:41;24.93;;;18.40;;
2257;SDS011;1136;51.574;7.706;2024-03-23T07:58:44;30.57;;;20.10;;
2257;SDS011;1136;51.574;7.706;2024-03-23T08:01:47;26.80;;;17.30;;
2257;SDS011;1136;51.574;7.706;2024-03-23T08:04:51;28.17;;;18.30;;
2257;SDS011;1136;51.574;7.706;2024-03-23T08:07:54;23.10;;;16.43;;
2257;SDS011;1136;51.574;7.706;2024-03-23T08:10:57;23.07;;;15.17;;
2257;SDS011;1136;51.574;7.706;2024-03-23T08:14:01;17.73;;;12.73;;
2257;SDS011;1136;51.574;7.706;2024-03-23T08:17:04;21.43;;;13.57;;
2257;SDS011;1136;51.574;7.706;2024-03-23T08:20:08;24.93;;;14.17;;
2257;SDS011;1136;51.574;7.706;2024-03-23T08:23:11;19.23;;;11.90;;
2257;SDS011;1136;51.574;7.706;2024-03-23T08:26:15;15.60;;;11.50;;
2257;SDS011;1136;51.574;7.706;2024-03-23T08:29:19;19.90;;;10.60;;
2257;SDS011;1136;51.574;7.706;2024-03-23T08:32:22;19.80;;;11.20;;
2257;SDS011;1136;51.574;7.706;2024-03-23T08:35:26;17.70;;;11.67;;
2257;SDS011;1136;51.574;7.706;2024-03-23T08:38:29;19.33;;;10.40;;
2257;SDS011;1136;51.574;7.706;2024-03-23T08:41:32;14.20;;;9.60;;
2257;SDS011;1136;51.574;7.706;2024-03-23T08:44:36;19.23;;;10.83;;
2257;SDS011;1136;51.574;7.706;2024-03-23T08:47:39;14.40;;;10.07;;
2257;SDS011;1136;51.574;7.706;2024-03-23T08:50:43;13.83;;;8.80;;
2257;SDS011;1136;51.574;7.706;2024-03-23T08:53:46;15.73;;;8.60;;
2257;SDS011;1136;51.574;7.706;2024-03-23T08:56:49;22.90;;;9.80;;
2257;SDS011;1136;51.574;7.706;2024-03-23T08:59:52;13.53;;;9.30;;
2257;SDS011;1136;51.574;7.706;2024-03-23T09:02:56;16.97;;;9.27;;
2257;SDS011;1136;51.574;7.706;2024-03-23T09:05:59;15.60;;;8.57;;
2257;SDS011;1136;51.574;7.706;2024-03-23T09:09:02;17.77;;;9.37;;
2257;SDS011;1136;51.574;7.706;2024-03-23T09:12:06;16.73;;;9.23;;
2257;SDS011;1136;51.574;7.706;2024-03-23T09:15:09;13.93;;;9.67;;
2257;SDS011;1136;51.574;7.706;2024-03-23T09:18:12;16.23;;;9.90;;
2257;SDS011;1136;51.574;7.706;2024-03-23T09:21:15;18.43;;;9.43;;
2257;SDS011;1136;51.574;7.706;2024-03-23T09:24:19;15.57;;;8.40;;
2257;SDS011;1136;51.574;7.706;2024-03-23T09:27:22;16.43;;;8.17;;
2257;SDS011;1136;51.574;7.706;2024-03-23T09:30:25;11.93;;;7.27;;
2257;SDS011;1136;51.574;7.706;2024-03-23T09:33:28;15.10;;;7.40;;
2257;SDS011;1136;51.574;7.706;2024-03-23T09:36:32;12.13;;;7.33;;
2257;SDS011;1136;51.574;7.706;2024-03-23T09:39:36;9.10;;;7.20;;
2257;SDS011;1136;51.574;7.706;2024-03-23T09:42:39;9.67;;;5.70;;
2257;SDS011;1136;51.574;7.706;2024-03-23T09:45:43;11.67;;;6.43;;
2257;SDS011;1136;51.574;7.706;2024-03-23T09:48:47;16.00;;;4.97;;
2257;SDS011;1136;51.574;7.706;2024-03-23T09:51:51;11.40;;;6.50;;
2257;SDS011;1136;51.574;7.706;2024-03-23T09:54:53;8.57;;;5.97;;
2257;SDS011;1136;51.574;7.706;2024-03-23T09:57:57;8.73;;;5.30;;
2257;SDS011;1136;51.574;7.706;2024-03-23T10:01:01;8.60;;;5.10;;
2257;SDS011;1136;51.574;7.706;2024-03-23T10:04:06;9.20;;;4.70;;
2257;SDS011;1136;51.574;7.706;2024-03-23T10:07:18;5.83;;;4.40;;
2257;SDS011;1136;51.574;7.706;2024-03-23T10:10:21;8.90;;;4.90;;
2257;SDS011;1136;51.574;7.706;2024-03-23T10:13:25;14.90;;;5.93;;
2257;SDS011;1136;51.574;7.706;2024-03-23T10:16:32;7.77;;;4.80;;
2257;SDS011;1136;51.574;7.706;2024-03-23T10:19:35;6.87;;;3.50;;
2257;SDS011;1136;51.574;7.706;2024-03-23T10:22:38;3.87;;;3.00;;
2257;SDS011;1136;51.574;7.706;2024-03-23T10:25:42;5.93;;;3.90;;
2257;SDS011;1136;51.574;7.706;2024-03-23T10:28:55;6.07;;;3.93;;
2257;SDS011;1136;51.574;7.706;2024-03-23T10:32:12;8.50;;;3.90;;
2257;SDS011;1136;51.574;7.706;2024-03-23T10:35:17;8.77;;;4.80;;
2257;SDS011;1136;51.574;7.706;2024-03-23T10:38:26;6.53;;;4.47;;
2257;SDS011;1136;51.574;7.706;2024-03-23T10:41:31;4.23;;;3.50;;
2257;SDS011;1136;51.574;7.706;2024-03-23T10:44:35;5.63;;;3.40;;
2257;SDS011;1136;51.574;7.706;2024-03-23T10:47:38;5.03;;;3.57;;
2257;SDS011;1136;51.574;7.706;2024-03-23T10:50:42;4.83;;;3.80;;
2257;SDS011;1136;51.574;7.706;2024-03-23T10:53:45;4.67;;;4.27;;
2257;SDS011;1136;51.574;7.706;2024-03-23T10:56:49;4.50;;;4.10;;
2257;SDS011;1136;51.574;7.706;2024-03-23T10:59:54;7.77;;;4.67;;
2257;SDS011;1136;51.574;7.706;2024-03-23T11:02:57;7.17;;;4.77;;
2257;SDS011;1136;51.574;7.706;2024-03-23T11:06:02;5.40;;;4.70;;
2257;SDS011;1136;51.574;7.706;2024-03-23T11:09:37;4.13;;;3.83;;
2257;SDS011;1136;51.574;7.706;2024-03-23T11:12:38;4.13;;;3.77;;
2257;SDS011;1136;51.574;7.706;2024-03-23T11:15:41;6.07;;;3.97;;
2257;SDS011;1136;51.574;7.706;2024-03-23T11:18:44;6.40;;;3.63;;
2257;SDS011;1136;51.574;7.706;2024-03-23T11:21:53;9.73;;;5.07;;
2257;SDS011;1136;51.574;7.706;2024-03-23T11:24:57;6.50;;;4.40;;
2257;SDS011;1136;51.574;7.706;2024-03-23T11:28:10;4.83;;;4.20;;
2257;SDS011;1136;51.574;7.706;2024-03-23T11:31:14;6.30;;;3.90;;
2257;SDS011;1136;51.574;7.706;2024-03-23T11:34:18;11.40;;;4.77;;
2257;SDS011;1136;51.574;7.706;2024-03-23T11:37:22;6.50;;;4.13;;
2257;SDS011;1136;51.574;7.706;2024-03-23T11:40:25;9.80;;;3.90;;
2257;SDS011;1136;51.574;7.706;2024-03-23T11:43:28;5.13;;;3.77;;
2257;SDS011;1136;51.574;7.706;2024-03-23T11:46:31;16.27;;;4.47;;
2257;SDS011;1136;51.574;7.706;2024-03-23T11:49:35;3.43;;;3.13;;
2257;SDS011;1136;51.574;7.706;2024-03-23T11:52:43;3.30;;;2.60;;
2257;SDS011;1136;51.574;7.706;2024-03-23T11:58:55;2.90;;;2.17;;
2257;SDS011;1136;51.574;7.706;2024-03-23T12:01:58;1.60;;;1.50;;
2257;SDS011;1136;51.574;7.706;2024-03-23T12:05:13;2.53;;;2.27;;
2257;SDS011;1136;51.574;7.706;2024-03-23T12:08:18;3.00;;;2.10;;
2257;SDS011;1136;51.574;7.706;2024-03-23T12:11:34;2.30;;;1.40;;
2257;SDS011;1136;51.574;7.706;2024-03-23T12:14:38;1.57;;;1.27;;
2257;SDS011;1136;51.574;7.706;2024-03-23T12:17:41;2.40;;;1.30;;
2257;SDS011;1136;51.574;7.706;2024-03-23T12:20:45;1.40;;;1.30;;
2257;SDS011;1136;51.574;7.706;2024-03-23T12:23:48;5.40;;;1.60;;
2257;SDS011;1136;51.574;7.706;2024-03-23T12:26:53;1.40;;;1.30;;
2257;SDS011;1136;51.574;7.706;2024-03-23T12:29:56;3.40;;;1.60;;
2257;SDS011;1136;51.574;7.706;2024-03-23T12:32:59;5.40;;;1.83;;
2257;SDS011;1136;51.574;7.706;2024-03-23T12:36:02;3.33;;;2.33;;
2257;SDS011;1136;51.574;7.706;2024-03-23T12:39:06;7.27;;;2.60;;
2257;SDS011;1136;51.574;7.706;2024-03-23T12:42:09;6.47;;;2.20;;
2257;SDS011;1136;51.574;7.706;2024-03-23T12:45:13;5.60;;;2.20;;
2257;SDS011;1136;51.574;7.706;2024-03-23T12:48:16;4.20;;;2.67;;
2257;SDS011;1136;51.574;7.706;2024-03-23T12:51:19;5.93;;;3.10;;
2257;SDS011;1136;51.574;7.706;2024-03-23T12:54:25;6.07;;;3.50;;
2257;SDS011;1136;51.574;7.706;2024-03-23T12:57:28;5.10;;;2.60;;
2257;SDS011;1136;51.574;7.706;2024-03-23T13:00:31;3.73;;;3.50;;
2257;SDS011;1136;51.574;7.706;2024-03-23T13:03:34;7.63;;;3.20;;
2257;SDS011;1136;51.574;7.706;2024-03-23T13:06:38;6.97;;;3.60;;
2257;SDS011;1136;51.574;7.706;2024-03-23T13:09:41;10.07;;;3.40;;
2257;SDS011;1136;51.574;7.706;2024-03-23T13:12:44;5.47;;;2.80;;
2257;SDS011;1136;51.574;7.706;2024-03-23T13:15:50;4.13;;;2.30;;
2257;SDS011;1136;51.574;7.706;2024-03-23T13:18:53;4.20;;;2.40;;
2257;SDS011;1136;51.574;7.706;2024-03-23T13:21:57;3.57;;;2.00;;
2257;SDS011;1136;51.574;7.706;2024-03-23T13:25:01;1.83;;;1.70;;
2257;SDS011;1136;51.574;7.706;2024-03-23T13:28:04;4.67;;;1.80;;
2257;SDS011;1136;51.574;7.706;2024-03-23T13:31:08;2.67;;;1.70;;
2257;SDS011;1136;51.574;7.706;2024-03-23T13:34:12;4.20;;;1.67;;
2257;SDS011;1136;51.574;7.706;2024-03-23T13:37:18;4.10;;;1.83;;
2257;SDS011;1136;51.574;7.706;2024-03-23T13:40:20;3.30;;;1.90;;
2257;SDS011;1136;51.574;7.706;2024-03-23T13:43:24;5.00;;;2.37;;
2257;SDS011;1136;51.574;7.706;2024-03-23T13:46:32;2.47;;;2.00;;
2257;SDS011;1136;51.574;7.706;2024-03-23T13:49:35;3.17;;;1.97;;
2257;SDS011;1136;51.574;7.706;2024-03-23T13:52:39;2.83;;;2.30;;
2257;SDS011;1136;51.574;7.706;2024-03-23T13:55:48;5.73;;;2.60;;
2257;SDS011;1136;51.574;7.706;2024-03-23T13:58:51;2.27;;;1.97;;
2257;SDS011;1136;51.574;7.706;2024-03-23T14:01:55;3.80;;;2.03;;
2257;SDS011;1136;51.574;7.706;2024-03-23T14:04:58;1.63;;;1.50;;
2257;SDS011;1136;51.574;7.706;2024-03-23T14:08:05;1.60;;;1.50;;
2257;SDS011;1136;51.574;7.706;2024-03-23T14:11:11;3.57;;;1.60;;
2257;SDS011;1136;51.574;7.706;2024-03-23T14:14:14;2.97;;;1.53;;
2257;SDS011;1136;51.574;7.706;2024-03-23T14:17:19;2.87;;;1.40;;
2257;SDS011;1136;51.574;7.706;2024-03-23T14:20:23;2.03;;;1.40;;
2257;SDS011;1136;51.574;7.706;2024-03-23T14:23:27;4.97;;;1.80;;
2257;SDS011;1136;51.574;7.706;2024-03-23T14:26:37;3.33;;;1.50;;
2257;SDS011;1136;51.574;7.706;2024-03-23T14:29:41;2.90;;;1.30;;
2257;SDS011;1136;51.574;7.706;2024-03-23T14:32:44;3.33;;;1.73;;
2257;SDS011;1136;51.574;7.706;2024-03-23T14:35:54;2.50;;;1.47;;
2257;SDS011;1136;51.574;7.706;2024-03-23T14:39:00;4.80;;;1.40;;
2257;SDS011;1136;51.574;7.706;2024-03-23T14:42:03;2.27;;;2.07;;
2257;SDS011;1136;51.574;7.706;2024-03-23T14:45:07;2.30;;;1.60;;
2257;SDS011;1136;51.574;7.706;2024-03-23T14:48:11;1.57;;;1.47;;
2257;SDS011;1136;51.574;7.706;2024-03-23T14:51:14;2.10;;;2.00;;
2257;SDS011;1136;51.574;7.706;2024-03-23T14:54:17;3.73;;;2.57;;
2257;SDS011;1136;51.574;7.706;2024-03-23T14:57:21;3.00;;;2.67;;
2257;SDS011;1136;51.574;7.706;2024-03-23T15:00:24;2.40;;;2.20;;
2257;SDS011;1136;51.574;7.706;2024-03-23T15:03:27;3.83;;;2.50;;
2257;SDS011;1136;51.574;7.706;2024-03-23T15:06:30;3.20;;;2.90;;
2257;SDS011;1136;51.574;7.706;2024-03-23T15:09:33;4.13;;;2.13;;
2257;SDS011;1136;51.574;7.706;2024-03-23T15:12:37;6.60;;;1.90;;
2257;SDS011;1136;51.574;7.706;2024-03-23T15:15:43;3.90;;;2.10;;
2257;SDS011;1136;51.574;7.706;2024-03-23T15:18:48;2.20;;;2.00;;
2257;SDS011;1136;51.574;7.706;2024-03-23T15:21:51;4.87;;;1.77;;
2257;SDS011;1136;51.574;7.706;2024-03-23T15:24:54;4.80;;;1.87;;
2257;SDS011;1136;51.574;7.706;2024-03-23T15:27:58;2.60;;;1.87;;
2257;SDS011;1136;51.574;7.706;2024-03-23T15:31:02;2.63;;;1.80;;
2257;SDS011;1136;51.574;7.706;2024-03-23T15:34:05;3.37;;;1.60;;
2257;SDS011;1136;51.574;7.706;2024-03-23T15:37:13;4.47;;;1.87;;
2257;SDS011;1136;51.574;7.706;2024-03-23T15:40:17;4.93;;;2.57;;
2257;SDS011;1136;51.574;7.706;2024-03-23T15:43:21;4.50;;;1.73;;
2257;SDS011;1136;51.574;7.706;2024-03-23T15:46:24;3.90;;;2.17;;
2257;SDS011;1136;51.574;7.706;2024-03-23T15:49:27;4.80;;;1.80;;
2257;SDS011;1136;51.574;7.706;2024-03-23T15:52:31;2.40;;;1.53;;
2257;SDS011;1136;51.574;7.706;2024-03-23T15:55:34;2.90;;;1.93;;
2257;SDS011;1136;51.574;7.706;2024-03-23T15:58:38;2.83;;;1.80;;
2257;SDS011;1136;51.574;7.706;2024-03-23T16:01:42;4.57;;;2.00;;
2257;SDS011;1136;51.574;7.706;2024-03-23T16:04:46;2.57;;;1.80;;
2257;SDS011;1136;51.574;7.706;2024-03-23T16:07:50;3.50;;;2.20;;
2257;SDS011;1136;51.574;7.706;2024-03-23T16:10:53;4.80;;;2.03;;
2257;SDS011;1136;51.574;7.706;2024-03-23T16:13:57;7.00;;;3.60;;
2257;SDS011;1136;51.574;7.706;2024-03-23T16:17:00;3.77;;;1.70;;
2257;SDS011;1136;51.574;7.706;2024-03-23T16:20:04;2.93;;;1.57;;
2257;SDS011;1136;51.574;7.706;2024-03-23T16:23:11;6.30;;;1.50;;
2257;SDS011;1136;51.574;7.706;2024-03-23T16:26:15;5.40;;;2.00;;
2257;SDS011;1136;51.574;7.706;2024-03-23T16:29:19;2.40;;;2.00;;
2257;SDS011;1136;51.574;7.706;2024-03-23T16:32:23;3.13;;;1.80;;
2257;SDS011;1136;51.574;7.706;2024-03-23T16:35:27;3.07;;;1.97;;
2257;SDS011;1136;51.574;7.706;2024-03-23T16:38:31;3.63;;;1.93;;
2257;SDS011;1136;51.574;7.706;2024-03-23T16:41:38;5.07;;;2.13;;
2257;SDS011;1136;51.574;7.706;2024-03-23T16:44:41;4.40;;;2.30;;
2257;SDS011;1136;51.574;7.706;2024-03-23T16:47:45;6.17;;;1.90;;
2257;SDS011;1136;51.574;7.706;2024-03-23T16:50:49;4.20;;;2.07;;
2257;SDS011;1136;51.574;7.706;2024-03-23T16:53:52;3.30;;;2.37;;
2257;SDS011;1136;51.574;7.706;2024-03-23T16:56:58;3.70;;;2.20;;
2257;SDS011;1136;51.574;7.706;2024-03-23T17:00:01;3.17;;;2.50;;
2257;SDS011;1136;51.574;7.706;2024-03-23T17:03:05;4.60;;;2.50;;
2257;SDS011;1136;51.574;7.706;2024-03-23T17:06:08;4.07;;;2.53;;
2257;SDS011;1136;51.574;7.706;2024-03-23T17:09:13;2.40;;;2.20;;
2257;SDS011;1136;51.574;7.706;2024-03-23T17:12:16;4.43;;;1.93;;
2257;SDS011;1136;51.574;7.706;2024-03-23T17:15:20;5.83;;;2.10;;
2257;SDS011;1136;51.574;7.706;2024-03-23T17:18:24;2.93;;;2.00;;
2257;SDS011;1136;51.574;7.706;2024-03-23T17:21:27;6.00;;;2.03;;
2257;SDS011;1136;51.574;7.706;2024-03-23T17:24:30;2.70;;;2.17;;
2257;SDS011;1136;51.574;7.706;2024-03-23T17:27:35;3.63;;;1.97;;
2257;SDS011;1136;51.574;7.706;2024-03-23T17:30:38;4.00;;;2.20;;
2257;SDS011;1136;51.574;7.706;2024-03-23T17:33:41;3.93;;;2.40;;
2257;SDS011;1136;51.574;7.706;2024-03-23T17:36:44;14.60;;;2.10;;
2257;SDS011;1136;51.574;7.706;2024-03-23T17:39:48;2.67;;;1.93;;
2257;SDS011;1136;51.574;7.706;2024-03-23T17:42:54;5.73;;;2.03;;
2257;SDS011;1136;51.574;7.706;2024-03-23T17:45:57;3.10;;;1.77;;
2257;SDS011;1136;51.574;7.706;2024-03-23T17:49:01;7.10;;;2.67;;
2257;SDS011;1136;51.574;7.706;2024-03-23T17:52:07;3.30;;;1.83;;
2257;SDS011;1136;51.574;7.706;2024-03-23T17:55:13;3.53;;;1.70;;
2257;SDS011;1136;51.574;7.706;2024-03-23T17:58:17;2.50;;;1.23;;
2257;SDS011;1136;51.574;7.706;2024-03-23T18:01:20;3.20;;;1.30;;
2257;SDS011;1136;51.574;7.706;2024-03-23T18:04:25;2.33;;;1.20;;
2257;SDS011;1136;51.574;7.706;2024-03-23T18:07:28;3.10;;;1.77;;
2257;SDS011;1136;51.574;7.706;2024-03-23T18:10:31;4.97;;;1.50;;
2257;SDS011;1136;51.574;7.706;2024-03-23T18:13:35;0.90;;;0.90;;
2257;SDS011;1136;51.574;7.706;2024-03-23T18:16:38;2.30;;;1.43;;
2257;SDS011;1136;51.574;7.706;2024-03-23T18:19:42;2.00;;;1.60;;
2257;SDS011;1136;51.574;7.706;2024-03-23T18:22:45;1.80;;;1.20;;
2257;SDS011;1136;51.574;7.706;2024-03-23T18:25:52;2.40;;;1.47;;
2257;SDS011;1136;51.574;7.706;2024-03-23T18:28:56;2.00;;;1.60;;
2257;SDS011;1136;51.574;7.706;2024-03-23T18:31:59;1.60;;;1.50;;
2257;SDS011;1136;51.574;7.706;2024-03-23T18:35:02;2.40;;;1.80;;
2257;SDS011;1136;51.574;7.706;2024-03-23T18:38:05;6.30;;;2.60;;
2257;SDS011;1136;51.574;7.706;2024-03-23T18:41:08;3.30;;;2.50;;
2257;SDS011;1136;51.574;7.706;2024-03-23T18:44:12;2.70;;;2.27;;
2257;SDS011;1136;51.574;7.706;2024-03-23T18:47:14;4.37;;;2.60;;
2257;SDS011;1136;51.574;7.706;2024-03-23T18:50:18;4.13;;;2.93;;
2257;SDS011;1136;51.574;7.706;2024-03-23T18:53:22;2.77;;;2.57;;
2257;SDS011;1136;51.574;7.706;2024-03-23T18:56:26;4.07;;;3.53;;
2257;SDS011;1136;51.574;7.706;2024-03-23T18:59:29;3.50;;;3.07;;
2257;SDS011;1136;51.574;7.706;2024-03-23T19:02:33;4.90;;;3.97;;
2257;SDS011;1136;51.574;7.706;2024-03-23T19:05:36;6.33;;;3.40;;
2257;SDS011;1136;51.574;7.706;2024-03-23T19:08:39;8.27;;;4.03;;
2257;SDS011;1136;51.574;7.706;2024-03-23T19:11:43;4.93;;;3.73;;
2257;SDS011;1136;51.574;7.706;2024-03-23T19:14:47;7.67;;;3.63;;
2257;SDS011;1136;51.574;7.706;2024-03-23T19:17:49;3.53;;;3.20;;
2257;SDS011;1136;51.574;7.706;2024-03-23T19:23:58;4.73;;;3.30;;
2257;SDS011;1136;51.574;7.706;2024-03-23T19:27:01;6.93;;;4.40;;
2257;SDS011;1136;51.574;7.706;2024-03-23T19:30:05;4.27;;;3.87;;
2257;SDS011;1136;51.574;7.706;2024-03-23T19:33:09;6.70;;;5.10;;
2257;SDS011;1136;51.574;7.706;2024-03-23T19:36:12;5.43;;;4.10;;
2257;SDS011;1136;51.574;7.706;2024-03-23T19:39:15;10.00;;;4.73;;
2257;SDS011;1136;51.574;7.706;2024-03-23T19:42:18;5.87;;;4.13;;
2257;SDS011;1136;51.574;7.706;2024-03-23T19:45:22;4.40;;;4.00;;
2257;SDS011;1136;51.574;7.706;2024-03-23T19:48:25;5.10;;;4.60;;
2257;SDS011;1136;51.574;7.706;2024-03-23T19:51:29;5.23;;;4.10;;
2257;SDS011;1136;51.574;7.706;2024-03-23T19:54:32;5.10;;;3.90;;